Time;durP1;ratioP1;P1;durP2;ratioP2;P2;SDS_P1;SDS_P2;PMS_P1;PMS_P2;Temp;Humidity;BMP_temperature;BMP_pressure;BME280_temperature;BME280_humidity;BME280_pressure;Samples;Min_cycle;Max_cycle;Signal;HPM_P1;HPM_P2
2021/08/03 00:01:10;;;;;;;1.80;0.77;;;15.60;90.50;;;;;;4861631;29;20053;-83
2021/08/03 00:03:38;;;;;;;3.63;1.02;;;15.60;90.60;;;;;;4844621;29;20084;-83
2021/08/03 00:06:10;;;;;;;3.17;0.90;;;15.50;90.70;;;;;;4844602;29;20419;-83
2021/08/03 00:08:42;;;;;;;2.25;0.95;;;15.50;91.00;;;;;;4843579;29;20054;-84
2021/08/03 00:11:09;;;;;;;2.45;0.70;;;15.40;91.00;;;;;;4841964;29;20058;-83
2021/08/03 00:13:37;;;;;;;3.22;0.98;;;15.40;91.20;;;;;;4842587;29;20054;-84
2021/08/03 00:16:08;;;;;;;3.10;0.80;;;15.40;91.30;;;;;;4842661;29;20065;-83
2021/08/03 00:18:38;;;;;;;3.90;0.93;;;15.30;91.40;;;;;;4843172;29;20411;-83
2021/08/03 00:21:04;;;;;;;2.50;0.77;;;15.30;91.40;;;;;;4844069;29;20096;-83
2021/08/03 00:23:30;;;;;;;2.30;0.90;;;15.30;91.40;;;;;;4843177;29;20058;-83
2021/08/03 00:25:57;;;;;;;3.35;0.90;;;15.30;91.30;;;;;;4844207;29;20500;-83
2021/08/03 00:28:23;;;;;;;2.22;0.82;;;15.20;91.30;;;;;;4858889;29;20076;-83
2021/08/03 00:30:49;;;;;;;4.18;0.82;;;15.20;91.20;;;;;;4862166;29;20498;-83
2021/08/03 00:33:17;;;;;;;2.25;0.77;;;15.20;91.30;;;;;;4862435;29;20053;-83
2021/08/03 00:35:42;;;;;;;1.88;0.90;;;15.20;91.40;;;;;;4862483;29;20057;-83
2021/08/03 00:38:08;;;;;;;2.65;0.80;;;15.10;91.30;;;;;;4861165;29;20516;-83
2021/08/03 00:40:46;;;;;;;4.57;1.00;;;15.10;91.30;;;;;;4862760;29;20061;-84
2021/08/03 00:43:11;;;;;;;1.90;0.88;;;15.10;91.20;;;;;;4862334;29;20072;-83
2021/08/03 00:45:37;;;;;;;4.22;0.80;;;15.00;91.20;;;;;;4861528;29;20506;-83
2021/08/03 00:48:03;;;;;;;2.83;0.90;;;15.00;91.10;;;;;;4847330;29;20133;-82
2021/08/03 00:50:29;;;;;;;3.75;0.90;;;14.90;91.10;;;;;;4850708;29;20132;-82
2021/08/03 00:52:55;;;;;;;2.45;0.80;;;14.90;91.30;;;;;;4855618;29;20054;-82
2021/08/03 00:55:21;;;;;;;2.95;0.95;;;14.90;91.30;;;;;;4846910;29;20559;-82
2021/08/03 00:57:48;;;;;;;4.18;1.00;;;14.90;91.30;;;;;;4858029;29;20057;-82
2021/08/03 01:00:14;;;;;;;2.67;0.90;;;14.90;91.30;;;;;;4861008;29;20460;-82
2021/08/03 01:02:39;;;;;;;2.33;0.88;;;14.90;91.20;;;;;;4861051;29;20057;-82
2021/08/03 01:05:06;;;;;;;3.80;0.82;;;14.90;91.20;;;;;;4860961;29;20511;-82
2021/08/03 01:07:43;;;;;;;2.03;0.70;;;14.90;91.20;;;;;;4860714;29;20062;-82
2021/08/03 01:10:30;;;;;;;2.65;1.05;;;14.80;91.10;;;;;;4861361;29;20414;-81
2021/08/03 01:13:20;;;;;;;2.75;0.70;;;14.80;91.10;;;;;;4860823;29;20053;-82
2021/08/03 01:15:51;;;;;;;2.38;0.60;;;14.80;91.10;;;;;;4860367;29;20418;-82
2021/08/03 01:18:26;;;;;;;2.53;0.90;;;14.70;91.10;;;;;;4847733;29;20079;-82
2021/08/03 01:21:00;;;;;;;1.63;1.00;;;14.70;91.10;;;;;;4840870;29;20380;-82
2021/08/03 01:23:57;;;;;;;1.50;0.80;;;14.60;91.20;;;;;;4841854;29;20083;-82
2021/08/03 01:26:53;;;;;;;2.22;0.80;;;14.60;90.90;;;;;;4859005;29;20049;-82
2021/08/03 01:29:21;;;;;;;1.88;0.85;;;14.50;91.20;;;;;;4861188;29;20064;-82
2021/08/03 01:31:49;;;;;;;2.05;0.80;;;14.50;91.50;;;;;;4861739;29;20053;-82
2021/08/03 01:34:18;;;;;;;1.70;0.80;;;14.50;91.60;;;;;;4860598;29;20050;-82
2021/08/03 01:36:48;;;;;;;1.85;0.70;;;14.40;91.70;;;;;;4861516;29;20517;-82
2021/08/03 01:39:17;;;;;;;1.17;0.80;;;14.40;91.70;;;;;;4861154;29;20077;-82
2021/08/03 01:41:48;;;;;;;1.67;0.77;;;14.40;91.70;;;;;;4860942;29;20084;-82
2021/08/03 01:44:14;;;;;;;1.45;0.70;;;14.40;91.80;;;;;;4852589;29;20054;-82
2021/08/03 01:46:42;;;;;;;1.70;0.60;;;14.40;92.10;;;;;;4842660;29;20129;-82
2021/08/03 01:49:11;;;;;;;1.23;0.50;;;14.40;91.80;;;;;;4842117;29;20492;-82
2021/08/03 01:51:37;;;;;;;1.73;0.70;;;14.30;91.80;;;;;;4842951;29;20079;-82
2021/08/03 01:54:04;;;;;;;3.28;0.70;;;14.30;91.70;;;;;;4842877;29;20054;-82
2021/08/03 01:56:30;;;;;;;1.52;0.50;;;14.30;91.70;;;;;;4842238;29;20076;-82
2021/08/03 01:58:57;;;;;;;1.30;0.60;;;14.20;91.70;;;;;;4842693;29;20061;-82
2021/08/03 02:01:23;;;;;;;2.15;0.80;;;14.20;91.80;;;;;;4842746;29;20054;-82
2021/08/03 02:03:50;;;;;;;1.45;0.68;;;14.20;91.70;;;;;;4842458;29;20592;-83
2021/08/03 02:06:17;;;;;;;2.03;0.60;;;14.20;91.90;;;;;;4841753;29;20076;-82
2021/08/03 02:08:44;;;;;;;2.88;0.82;;;14.10;91.90;;;;;;4842488;29;20595;-81
2021/08/03 02:11:10;;;;;;;1.50;0.60;;;14.10;91.90;;;;;;4841985;29;20510;-82
2021/08/03 02:13:35;;;;;;;2.85;0.80;;;14.10;91.90;;;;;;4855688;29;20046;-82
2021/08/03 02:16:02;;;;;;;2.60;0.70;;;14.10;91.80;;;;;;4862855;29;20202;-82
2021/08/03 02:18:28;;;;;;;1.02;0.60;;;14.00;91.80;;;;;;4864705;29;20060;-81
2021/08/03 02:20:53;;;;;;;1.45;0.57;;;14.00;91.70;;;;;;4864294;29;20509;-82
2021/08/03 02:23:19;;;;;;;1.05;0.60;;;14.00;91.70;;;;;;4861595;29;20086;-82
2021/08/03 02:25:45;;;;;;;1.92;0.70;;;14.00;91.70;;;;;;4849821;29;20058;-82
2021/08/03 02:28:11;;;;;;;1.27;0.60;;;14.00;91.70;;;;;;4844695;29;20053;-81
2021/08/03 02:30:39;;;;;;;1.10;0.60;;;13.90;91.70;;;;;;4844167;29;20061;-82
2021/08/03 02:33:27;;;;;;;2.08;0.75;;;13.90;91.50;;;;;;4845716;29;20054;-82
2021/08/03 02:36:07;;;;;;;3.38;0.80;;;13.80;91.40;;;;;;4846224;29;20053;-82
2021/08/03 02:38:38;;;;;;;1.98;0.70;;;13.70;91.70;;;;;;4845095;29;20460;-81
2021/08/03 02:41:04;;;;;;;0.65;0.40;;;13.70;91.80;;;;;;4845172;29;20106;-82
2021/08/03 02:43:33;;;;;;;1.40;0.63;;;13.70;91.50;;;;;;4857861;29;20053;-82
2021/08/03 02:46:02;;;;;;;1.08;0.47;;;13.60;91.20;;;;;;4862809;29;20110;-82
2021/08/03 02:48:29;;;;;;;1.05;0.60;;;13.60;91.20;;;;;;4864026;29;20522;-82
2021/08/03 02:50:56;;;;;;;2.67;0.73;;;13.60;91.50;;;;;;4863629;29;20057;-82
2021/08/03 02:53:27;;;;;;;1.42;0.65;;;13.60;91.70;;;;;;4847740;29;20492;-83
2021/08/03 02:56:01;;;;;;;1.73;0.70;;;13.50;92.00;;;;;;4845020;29;20530;-82
2021/08/03 02:58:40;;;;;;;1.73;0.52;;;13.50;91.90;;;;;;4844787;29;20053;-82
2021/08/03 03:01:09;;;;;;;1.38;0.70;;;13.50;91.90;;;;;;4847688;29;20053;-82
2021/08/03 03:03:40;;;;;;;0.95;0.50;;;13.50;92.10;;;;;;4863136;29;20057;-82
2021/08/03 03:06:09;;;;;;;3.55;0.70;;;13.50;92.10;;;;;;4862816;29;20056;-82
2021/08/03 03:08:37;;;;;;;3.20;0.60;;;13.50;92.10;;;;;;4863559;29;20498;-82
2021/08/03 03:11:06;;;;;;;1.83;0.70;;;13.50;92.10;;;;;;4863321;29;20053;-82
2021/08/03 03:13:45;;;;;;;1.83;0.70;;;13.50;92.10;;;;;;4844067;29;20202;-82
2021/08/03 03:16:12;;;;;;;2.95;0.70;;;13.50;92.30;;;;;;4844851;29;20079;-82
2021/08/03 03:18:38;;;;;;;2.15;0.65;;;13.40;92.20;;;;;;4844912;29;20412;-81
2021/08/03 03:21:05;;;;;;;1.35;0.70;;;13.50;92.20;;;;;;4844193;29;20065;-82
2021/08/03 03:23:33;;;;;;;1.65;0.80;;;13.50;92.30;;;;;;4844842;29;20498;-82
2021/08/03 03:25:59;;;;;;;2.17;0.70;;;13.50;92.10;;;;;;4843861;29;20629;-82
2021/08/03 03:28:28;;;;;;;1.85;0.88;;;13.40;92.00;;;;;;4843913;29;20050;-82
2021/08/03 03:30:55;;;;;;;1.20;0.60;;;13.40;92.20;;;;;;4843748;29;20060;-81
2021/08/03 03:33:23;;;;;;;2.85;0.63;;;13.40;92.10;;;;;;4860604;29;20060;-82
2021/08/03 03:35:52;;;;;;;1.52;0.80;;;13.40;92.20;;;;;;4861205;29;20057;-82
2021/08/03 03:38:21;;;;;;;2.30;0.70;;;13.40;92.00;;;;;;4863360;29;20105;-82
2021/08/03 03:40:48;;;;;;;1.25;0.57;;;13.40;92.10;;;;;;4862354;29;20081;-82
2021/08/03 03:43:17;;;;;;;3.85;0.90;;;13.40;91.80;;;;;;4846130;29;20479;-82
2021/08/03 03:45:53;;;;;;;2.05;0.82;;;13.40;91.90;;;;;;4844677;29;20538;-82
2021/08/03 03:48:21;;;;;;;1.20;0.60;;;13.40;92.00;;;;;;4843851;29;20077;-82
2021/08/03 03:50:50;;;;;;;2.67;0.80;;;13.40;92.00;;;;;;4845736;29;20411;-82
2021/08/03 03:53:20;;;;;;;1.50;0.70;;;13.40;92.00;;;;;;4862500;29;20053;-82
2021/08/03 03:55:57;;;;;;;1.40;0.70;;;13.40;92.00;;;;;;4862205;29;20057;-82
2021/08/03 03:58:24;;;;;;;1.55;0.70;;;13.40;91.90;;;;;;4862792;29;20053;-81
2021/08/03 04:00:51;;;;;;;2.42;0.80;;;13.40;91.90;;;;;;4862932;29;20065;-81
2021/08/03 04:03:20;;;;;;;2.92;0.82;;;13.40;92.00;;;;;;4861775;29;20049;-82
2021/08/03 04:05:47;;;;;;;1.42;0.80;;;13.40;92.10;;;;;;4862728;29;20058;-82
2021/08/03 04:08:13;;;;;;;2.97;0.90;;;13.40;92.00;;;;;;4846460;29;20568;-82
2021/08/03 04:10:40;;;;;;;1.55;0.70;;;13.40;92.00;;;;;;4845638;29;20437;-81
2021/08/03 04:13:06;;;;;;;3.20;1.13;;;13.40;91.80;;;;;;4861369;29;20049;-82
2021/08/03 04:15:32;;;;;;;1.58;0.80;;;13.40;91.80;;;;;;4851725;29;20056;-83
2021/08/03 04:17:58;;;;;;;2.40;0.70;;;13.40;91.80;;;;;;4861320;29;20057;-82
2021/08/03 04:20:25;;;;;;;1.75;0.70;;;13.40;91.90;;;;;;4844863;29;20077;-82
2021/08/03 04:22:51;;;;;;;1.90;0.80;;;13.40;91.80;;;;;;4843193;29;20483;-82
2021/08/03 04:25:17;;;;;;;1.77;0.80;;;13.40;91.70;;;;;;4843279;29;20936;-82
2021/08/03 04:27:43;;;;;;;1.40;0.80;;;13.40;91.80;;;;;;4843844;29;20079;-83
2021/08/03 04:30:12;;;;;;;2.38;1.02;;;13.40;91.80;;;;;;4843000;29;20056;-83
2021/08/03 04:32:38;;;;;;;1.50;0.80;;;13.40;91.80;;;;;;4843731;29;20060;-82
2021/08/03 04:35:04;;;;;;;2.47;0.93;;;13.40;91.90;;;;;;4843400;29;20137;-82
2021/08/03 04:37:40;;;;;;;3.30;0.90;;;13.40;92.00;;;;;;4852546;29;20406;-82
2021/08/03 04:40:07;;;;;;;3.00;0.95;;;13.40;91.90;;;;;;4861901;29;20407;-83
2021/08/03 04:42:33;;;;;;;2.53;0.75;;;13.40;91.90;;;;;;4862060;29;20052;-83
2021/08/03 04:44:59;;;;;;;3.53;1.00;;;13.40;91.90;;;;;;4861168;29;20072;-83
2021/08/03 04:47:25;;;;;;;4.38;0.85;;;13.40;92.10;;;;;;4861673;29;20132;-82
2021/08/03 04:49:50;;;;;;;1.58;0.82;;;13.40;92.00;;;;;;4862005;29;20490;-82
2021/08/03 04:52:16;;;;;;;2.33;0.80;;;13.40;91.80;;;;;;4861048;29;20487;-82
2021/08/03 04:54:42;;;;;;;2.25;0.80;;;13.50;91.80;;;;;;4861965;29;20057;-82
2021/08/03 04:57:07;;;;;;;1.88;0.70;;;13.50;91.80;;;;;;4861505;29;20410;-82
2021/08/03 04:59:33;;;;;;;1.52;0.73;;;13.50;91.80;;;;;;4860957;29;20517;-82
2021/08/03 05:02:01;;;;;;;3.22;1.00;;;13.40;91.60;;;;;;4859861;29;20052;-83
2021/08/03 05:04:34;;;;;;;;;;;13.50;91.70;;;;;;4862677;29;20061;-83
2021/08/03 05:07:04;;;;;;;1.80;0.80;;;13.40;90.70;;;;;;4855171;29;19947;-83
2021/08/03 05:09:30;;;;;;;1.40;0.70;;;13.40;91.60;;;;;;4843335;29;20054;-83
2021/08/03 05:11:56;;;;;;;2.75;0.90;;;13.50;91.40;;;;;;4842539;29;20895;-83
2021/08/03 05:14:21;;;;;;;2.97;0.90;;;13.50;91.40;;;;;;4842717;29;20140;-83
2021/08/03 05:16:47;;;;;;;2.10;0.90;;;13.50;91.40;;;;;;4842897;29;20551;-83
2021/08/03 05:19:13;;;;;;;2.50;0.77;;;13.50;91.60;;;;;;4842283;29;20138;-83
2021/08/03 05:21:39;;;;;;;1.80;0.80;;;13.50;91.60;;;;;;4843337;29;20388;-83
2021/08/03 05:24:05;;;;;;;2.95;1.00;;;13.60;91.50;;;;;;4857185;29;20060;-83
2021/08/03 05:26:31;;;;;;;2.25;1.00;;;13.60;91.60;;;;;;4860965;29;20082;-83
2021/08/03 05:28:56;;;;;;;1.83;0.88;;;13.60;91.50;;;;;;4861463;29;20050;-83
2021/08/03 05:31:22;;;;;;;2.05;0.98;;;13.60;91.40;;;;;;4861124;29;20140;-83
2021/08/03 05:33:47;;;;;;;2.20;0.80;;;13.60;91.30;;;;;;4860837;29;20132;-83
2021/08/03 05:36:13;;;;;;;4.07;1.23;;;13.60;91.30;;;;;;4860994;29;20113;-83
2021/08/03 05:38:39;;;;;;;1.15;0.75;;;13.60;91.40;;;;;;4861387;29;20061;-83
2021/08/03 05:41:05;;;;;;;1.58;0.93;;;13.60;91.20;;;;;;4860519;29;20058;-83
2021/08/03 05:43:31;;;;;;;1.73;0.85;;;13.60;91.30;;;;;;4861128;29;20418;-83
2021/08/03 05:45:57;;;;;;;2.13;0.93;;;13.70;91.20;;;;;;4861097;29;20050;-83
2021/08/03 05:48:22;;;;;;;1.20;0.80;;;13.70;91.30;;;;;;4860574;29;20487;-82
2021/08/03 05:50:48;;;;;;;2.58;1.05;;;13.70;91.50;;;;;;4863355;29;20121;-83
2021/08/03 05:53:13;;;;;;;2.17;0.95;;;13.70;91.50;;;;;;4865028;29;20136;-83
2021/08/03 05:55:41;;;;;;;3.25;0.93;;;13.70;91.60;;;;;;4864051;29;20479;-83
2021/08/03 05:58:06;;;;;;;4.53;1.10;;;13.70;91.70;;;;;;4864538;29;20050;-82
2021/08/03 06:00:33;;;;;;;2.45;0.90;;;13.70;91.60;;;;;;4864572;29;20399;-83
2021/08/03 06:03:05;;;;;;;1.80;1.00;;;13.70;91.50;;;;;;4863838;29;20143;-82
2021/08/03 06:05:34;;;;;;;4.18;1.00;;;13.80;91.60;;;;;;4864986;29;20140;-83
2021/08/03 06:08:07;;;;;;;2.30;0.93;;;13.80;91.70;;;;;;4862235;29;20117;-83
2021/08/03 06:10:33;;;;;;;4.13;1.10;;;13.80;91.50;;;;;;4864728;29;20136;-84
2021/08/03 06:13:01;;;;;;;1.80;0.80;;;13.80;91.60;;;;;;4864391;29;20056;-83
2021/08/03 06:15:31;;;;;;;3.10;1.00;;;13.80;91.70;;;;;;4863979;29;20161;-83
2021/08/03 06:18:17;;;;;;;1.58;0.80;;;13.80;91.90;;;;;;4864591;29;20056;-83
2021/08/03 06:20:43;;;;;;;2.22;1.15;;;13.90;91.70;;;;;;4864687;29;20049;-83
2021/08/03 06:23:13;;;;;;;2.60;1.02;;;13.90;91.90;;;;;;4863431;29;20045;-83
2021/08/03 06:25:40;;;;;;;6.13;1.73;;;13.90;91.70;;;;;;4864211;29;20064;-83
2021/08/03 06:28:07;;;;;;;1.70;0.77;;;14.00;92.10;;;;;;4863952;29;20483;-83
2021/08/03 06:30:38;;;;;;;2.92;1.10;;;14.00;92.10;;;;;;4863466;29;20053;-83
2021/08/03 06:33:06;;;;;;;2.42;1.10;;;14.10;91.70;;;;;;4863952;29;20073;-83
2021/08/03 06:35:37;;;;;;;;;;;14.10;91.70;;;;;;4864765;29;20053;-82
2021/08/03 06:38:02;;;;;;;2.22;0.82;;;14.00;90.70;;;;;;4861206;29;20357;-83
2021/08/03 06:40:30;;;;;;;2.15;0.90;;;14.10;91.60;;;;;;4863920;29;20076;-83
2021/08/03 06:43:07;;;;;;;1.92;0.90;;;14.20;91.60;;;;;;4864323;29;20057;-83
2021/08/03 06:45:34;;;;;;;2.20;0.90;;;14.30;91.60;;;;;;4862511;29;20387;-83
2021/08/03 06:48:11;;;;;;;2.00;0.90;;;14.40;91.50;;;;;;4863757;29;20124;-82
2021/08/03 06:50:55;;;;;;;2.13;0.90;;;14.40;91.50;;;;;;4863514;29;20119;-83
2021/08/03 06:53:24;;;;;;;3.00;1.00;;;14.50;91.50;;;;;;4851272;29;20510;-83
2021/08/03 06:55:51;;;;;;;5.28;1.40;;;14.60;91.50;;;;;;4845288;29;20102;-83
2021/08/03 06:59:03;;;;;;;2.70;0.80;;;14.70;91.70;;;;;;4844324;29;20487;-83
2021/08/03 07:01:40;;;;;;;2.40;0.82;;;14.80;91.40;;;;;;4843828;29;20062;-83
2021/08/03 07:04:11;;;;;;;2.67;1.20;;;14.90;91.40;;;;;;4844813;29;20495;-84
2021/08/03 07:06:42;;;;;;;3.38;1.30;;;15.00;91.50;;;;;;4852999;29;20054;-83
2021/08/03 07:09:09;;;;;;;2.50;1.00;;;15.10;91.70;;;;;;4862735;29;20049;-82
2021/08/03 07:11:35;;;;;;;2.88;1.00;;;15.20;92.00;;;;;;4862962;29;20049;-82
2021/08/03 07:14:01;;;;;;;3.05;0.95;;;15.40;91.50;;;;;;4863320;29;20101;-82
2021/08/03 07:16:28;;;;;;;2.70;0.98;;;15.40;91.40;;;;;;4863548;29;20126;-83
2021/08/03 07:18:55;;;;;;;3.35;1.20;;;15.50;91.30;;;;;;4862887;29;20060;-82
2021/08/03 07:21:26;;;;;;;2.15;0.82;;;15.60;91.60;;;;;;4863270;29;20061;-83
2021/08/03 07:23:56;;;;;;;1.75;0.75;;;15.70;91.40;;;;;;4850090;29;20054;-82
2021/08/03 07:26:25;;;;;;;4.30;1.20;;;15.80;91.20;;;;;;4862018;29;20400;-79
2021/08/03 07:28:51;;;;;;;2.33;0.90;;;15.90;91.20;;;;;;4863195;29;20060;-79
2021/08/03 07:31:18;;;;;;;4.78;0.90;;;16.00;90.90;;;;;;4862737;29;20328;-79
2021/08/03 07:33:44;;;;;;;2.42;0.80;;;16.10;90.90;;;;;;4861803;29;20093;-79
2021/08/03 07:36:09;;;;;;;3.42;0.90;;;16.20;90.80;;;;;;4862693;29;20060;-80
2021/08/03 07:38:35;;;;;;;2.70;0.80;;;16.30;90.60;;;;;;4862119;29;20627;-80
2021/08/03 07:41:01;;;;;;;3.13;0.80;;;16.40;90.60;;;;;;4861689;29;20510;-81
2021/08/03 07:43:27;;;;;;;2.55;0.75;;;16.50;90.60;;;;;;4862665;29;20061;-80
2021/08/03 07:45:53;;;;;;;2.60;0.80;;;16.60;90.50;;;;;;4861780;29;20558;-80
2021/08/03 07:48:18;;;;;;;3.60;0.80;;;16.70;90.50;;;;;;4861625;29;20054;-81
2021/08/03 07:50:44;;;;;;;4.18;0.90;;;16.80;90.30;;;;;;4848823;29;20483;-82
2021/08/03 07:53:10;;;;;;;2.53;0.70;;;16.80;90.10;;;;;;4852073;29;20113;-82
2021/08/03 07:55:35;;;;;;;4.20;0.70;;;16.90;89.80;;;;;;4846363;29;20058;-81
2021/08/03 07:58:01;;;;;;;2.50;0.60;;;17.00;89.50;;;;;;4844791;29;20061;-80
2021/08/03 08:00:28;;;;;;;2.33;0.70;;;17.00;89.10;;;;;;4843324;29;20445;-82
2021/08/03 08:02:55;;;;;;;3.67;0.70;;;17.10;88.00;;;;;;4849696;29;20049;-80
2021/08/03 08:05:21;;;;;;;4.22;0.80;;;17.20;87.50;;;;;;4860209;29;20058;-82
2021/08/03 08:07:47;;;;;;;3.45;0.80;;;17.30;88.10;;;;;;4874979;29;20060;-82
2021/08/03 08:10:13;;;;;;;3.47;0.73;;;17.40;87.20;;;;;;4880912;29;20053;-81
2021/08/03 08:12:38;;;;;;;2.58;0.70;;;17.40;87.70;;;;;;4880405;29;20189;-81
2021/08/03 08:15:04;;;;;;;4.80;0.90;;;17.50;87.30;;;;;;4879425;29;20056;-81
2021/08/03 08:17:30;;;;;;;2.80;0.82;;;17.60;87.70;;;;;;4865269;29;20056;-82
2021/08/03 08:19:56;;;;;;;1.58;0.60;;;17.70;88.10;;;;;;4861920;29;20054;-81
2021/08/03 08:22:21;;;;;;;3.88;0.73;;;17.80;87.80;;;;;;4861546;29;20141;-81
2021/08/03 08:24:47;;;;;;;5.15;0.80;;;17.90;88.30;;;;;;4861580;29;20064;-81
2021/08/03 08:27:13;;;;;;;1.50;0.70;;;17.90;87.40;;;;;;4861786;29;20049;-82
2021/08/03 08:29:39;;;;;;;1.45;0.60;;;18.00;88.00;;;;;;4861193;29;20356;-82
2021/08/03 08:32:06;;;;;;;3.15;0.68;;;18.10;88.40;;;;;;4862064;29;20665;-83
2021/08/03 08:34:32;;;;;;;1.40;0.60;;;18.20;88.80;;;;;;4860906;29;20057;-83
2021/08/03 08:36:57;;;;;;;1.90;0.70;;;18.30;89.00;;;;;;4861659;29;20145;-84
2021/08/03 08:39:23;;;;;;;1.98;0.57;;;18.40;86.90;;;;;;4862210;29;20057;-83
2021/08/03 08:41:49;;;;;;;2.63;0.60;;;18.40;87.10;;;;;;4860165;29;20054;-84
2021/08/03 08:44:18;;;;;;;2.92;0.70;;;18.50;86.30;;;;;;4857259;29;20465;-82
2021/08/03 08:46:45;;;;;;;3.63;0.70;;;18.60;84.40;;;;;;4861657;29;20049;-81
2021/08/03 08:49:13;;;;;;;1.63;0.60;;;18.70;84.70;;;;;;4861771;29;20064;-81
2021/08/03 08:51:41;;;;;;;1.95;0.70;;;18.80;84.50;;;;;;4861180;29;20057;-81
2021/08/03 08:54:06;;;;;;;3.45;0.70;;;18.80;85.60;;;;;;4848500;29;20072;-85
2021/08/03 08:56:32;;;;;;;3.65;0.85;;;18.90;81.10;;;;;;4842892;29;20581;-82
2021/08/03 08:58:58;;;;;;;3.95;0.80;;;19.00;79.70;;;;;;4845809;29;20080;-83
2021/08/03 09:01:24;;;;;;;1.17;0.52;;;19.00;76.90;;;;;;4860835;29;20069;-80
2021/08/03 09:03:49;;;;;;;2.50;0.70;;;19.10;80.00;;;;;;4859957;29;20056;-83
2021/08/03 09:06:20;;;;;;;2.30;0.80;;;19.20;81.10;;;;;;4860755;29;20061;-81
2021/08/03 09:08:47;;;;;;;3.05;0.75;;;19.30;77.80;;;;;;4861183;29;20108;-80
2021/08/03 09:11:18;;;;;;;3.58;0.93;;;19.40;79.30;;;;;;4859788;29;20129;-81
2021/08/03 09:14:02;;;;;;;2.17;0.73;;;19.50;79.40;;;;;;4860013;29;20049;-85
2021/08/03 09:16:44;;;;;;;2.45;0.70;;;19.70;79.10;;;;;;4849108;29;20049;-84
2021/08/03 09:19:32;;;;;;;1.63;0.70;;;19.70;78.30;;;;;;4860377;29;20046;-86
2021/08/03 09:22:15;;;;;;;2.38;0.70;;;19.80;76.40;;;;;;4860356;29;20495;-82
2021/08/03 09:24:43;;;;;;;3.33;0.68;;;19.90;76.50;;;;;;4861291;29;20546;-85
2021/08/03 09:27:30;;;;;;;3.00;0.77;;;19.90;75.40;;;;;;4863340;29;20046;-82
2021/08/03 09:29:55;;;;;;;2.83;0.80;;;20.00;75.10;;;;;;4864185;29;20053;-83
2021/08/03 09:32:29;;;;;;;3.22;0.73;;;20.00;76.70;;;;;;4863451;29;20060;-82
2021/08/03 09:35:15;;;;;;;3.33;0.98;;;20.10;76.30;;;;;;4864966;29;20053;-83
2021/08/03 09:37:42;;;;;;;3.33;0.98;;;20.10;73.60;;;;;;4865282;29;20073;-82
2021/08/03 09:40:32;;;;;;;2.65;0.80;;;20.20;77.80;;;;;;4864485;29;20046;-82
2021/08/03 09:43:05;;;;;;;3.10;0.80;;;20.30;78.00;;;;;;4864452;29;20049;-82
2021/08/03 09:45:58;;;;;;;4.15;0.80;;;20.30;74.50;;;;;;4849855;29;20122;-84
2021/08/03 09:48:26;;;;;;;3.17;0.80;;;20.30;75.60;;;;;;4852220;29;20464;-84
2021/08/03 09:51:01;;;;;;;3.78;0.80;;;20.40;78.70;;;;;;4864491;29;20077;-84
2021/08/03 09:53:47;;;;;;;2.95;0.80;;;20.40;77.60;;;;;;4864001;29;20049;-83
2021/08/03 09:56:34;;;;;;;3.30;0.70;;;20.50;77.60;;;;;;4862343;29;20050;-83
2021/08/03 09:59:04;;;;;;;2.50;0.80;;;20.60;77.40;;;;;;4856261;29;20844;-82
2021/08/03 10:01:35;;;;;;;2.72;1.00;;;20.60;72.80;;;;;;4855594;29;20046;-81
2021/08/03 10:04:08;;;;;;;2.67;0.82;;;20.60;77.00;;;;;;4850450;29;20414;-82
2021/08/03 10:06:35;;;;;;;3.20;1.10;;;20.70;79.40;;;;;;4864708;29;20056;-82
2021/08/03 10:09:02;;;;;;;1.90;0.70;;;20.90;80.20;;;;;;4862591;29;20053;-82
2021/08/03 10:11:28;;;;;;;3.65;0.85;;;21.00;81.20;;;;;;4859943;29;20045;-82
2021/08/03 10:13:55;;;;;;;1.70;0.60;;;21.10;81.70;;;;;;4863468;29;20102;-81
2021/08/03 10:16:21;;;;;;;1.50;0.60;;;21.30;81.80;;;;;;4862752;29;20064;-82
2021/08/03 10:18:53;;;;;;;1.92;0.70;;;21.40;82.50;;;;;;4863385;29;20058;-84
2021/08/03 10:21:46;;;;;;;2.95;0.80;;;21.50;82.80;;;;;;4862383;29;20045;-83
2021/08/03 10:24:28;;;;;;;3.83;0.98;;;21.60;80.60;;;;;;4863654;29;20054;-83
2021/08/03 10:27:15;;;;;;;5.40;0.90;;;21.70;73.00;;;;;;4863566;29;20088;-80
2021/08/03 10:30:09;;;;;;;3.75;1.00;;;21.70;72.90;;;;;;4860841;29;20060;-81
2021/08/03 10:32:37;;;;;;;1.95;1.00;;;21.70;75.10;;;;;;4855597;29;20418;-82
2021/08/03 10:38:15;;;;;;;3.35;1.08;;;21.70;73.70;;;;;;4858308;23;20057;-80
2021/08/03 10:40:43;;;;;;;25.30;7.85;;;21.80;75.40;;;;;;4845408;29;20076;-81
2021/08/03 10:43:24;;;;;;;7.20;2.47;;;21.80;74.30;;;;;;4843772;29;20050;-81
2021/08/03 10:46:09;;;;;;;8.05;2.20;;;21.80;72.20;;;;;;4844675;29;20058;-80
2021/08/03 10:48:38;;;;;;;7.97;1.85;;;21.80;73.70;;;;;;4844546;29;20054;-82
2021/08/03 10:51:15;;;;;;;6.30;2.03;;;21.90;68.90;;;;;;4842547;29;20049;-80
2021/08/03 10:54:08;;;;;;;7.07;2.03;;;21.80;70.50;;;;;;4845421;29;20570;-80
2021/08/03 10:56:54;;;;;;;13.82;4.60;;;21.80;68.00;;;;;;4831492;29;20855;-80
2021/08/03 10:59:34;;;;;;;8.57;2.95;;;21.80;66.10;;;;;;4827960;29;20140;-81
2021/08/03 11:02:02;;;;;;;7.25;2.55;;;21.80;69.80;;;;;;4833156;29;20061;-81
2021/08/03 11:04:40;;;;;;;13.40;4.57;;;21.70;71.60;;;;;;4843102;29;20456;-80
2021/08/03 11:07:24;;;;;;;19.55;8.13;;;21.80;71.10;;;;;;4841073;29;20080;-81
2021/08/03 11:10:13;;;;;;;12.18;3.75;;;21.80;71.20;;;;;;4841422;29;20110;-81
2021/08/03 11:12:49;;;;;;;4.25;1.30;;;21.80;69.70;;;;;;4841834;29;20106;-81
2021/08/03 11:15:21;;;;;;;8.68;2.08;;;21.80;67.30;;;;;;4843309;29;20086;-80
2021/08/03 11:17:50;;;;;;;39.20;11.50;;;21.70;65.90;;;;;;4844484;29;20058;-79
2021/08/03 11:20:34;;;;;;;33.25;9.88;;;21.80;69.90;;;;;;4844734;29;20068;-80
2021/08/03 11:23:05;;;;;;;28.45;7.07;;;21.80;70.40;;;;;;4842839;29;20058;-81
2021/08/03 11:25:31;;;;;;;27.48;9.07;;;21.90;72.20;;;;;;4833723;29;20042;-82
2021/08/03 11:28:26;;;;;;;33.50;10.88;;;22.00;72.80;;;;;;4844364;29;20078;-81
2021/08/03 11:30:52;;;;;;;5.47;1.75;;;22.00;74.00;;;;;;4818619;29;20117;-81
2021/08/03 11:33:19;;;;;;;28.65;8.50;;;22.10;68.00;;;;;;4827474;29;20507;-81
2021/08/03 11:35:45;;;;;;;32.78;9.55;;;22.20;71.20;;;;;;4840579;29;20058;-81
2021/08/03 11:38:17;;;;;;;21.45;6.50;;;22.20;73.20;;;;;;4841175;29;20111;-81
2021/08/03 11:40:43;;;;;;;16.55;5.50;;;22.30;72.70;;;;;;4842223;29;20054;-81
2021/08/03 11:43:09;;;;;;;24.20;8.27;;;22.30;71.70;;;;;;4826883;29;20077;-80
2021/08/03 11:45:36;;;;;;;27.83;9.00;;;22.40;73.10;;;;;;4825937;29;20104;-81
2021/08/03 11:48:05;;;;;;;26.50;7.68;;;22.50;73.60;;;;;;4833077;29;20062;-82
2021/08/03 11:50:39;;;;;;;19.58;6.70;;;22.60;74.50;;;;;;4833280;29;20046;-82
2021/08/03 11:53:05;;;;;;;18.77;7.43;;;22.70;73.80;;;;;;4841311;29;20108;-83
2021/08/03 11:55:31;;;;;;;19.08;6.40;;;22.70;74.60;;;;;;4830116;29;20053;-83
2021/08/03 11:58:00;;;;;;;18.17;6.22;;;22.90;74.00;;;;;;4825750;29;20077;-82
2021/08/03 12:00:29;;;;;;;10.75;3.97;;;23.00;73.40;;;;;;4842152;29;20058;-82
2021/08/03 12:02:57;;;;;;;4.75;1.58;;;23.00;72.30;;;;;;4836503;29;20085;-83
2021/08/03 12:05:31;;;;;;;4.85;1.25;;;23.00;66.40;;;;;;4836976;29;20057;-81
2021/08/03 12:08:13;;;;;;;3.75;1.42;;;23.00;61.40;;;;;;4824738;29;20050;-81
2021/08/03 12:10:47;;;;;;;4.90;1.45;;;22.90;60.30;;;;;;4825193;29;20069;-81
2021/08/03 12:13:28;;;;;;;11.88;3.50;;;22.80;60.70;;;;;;4826394;29;20136;-80
2021/08/03 12:15:55;;;;;;;10.07;2.75;;;22.80;66.70;;;;;;4826871;29;20114;-81
2021/08/03 12:18:21;;;;;;;10.25;3.67;;;22.90;68.20;;;;;;4834147;29;20136;-82
2021/08/03 12:20:50;;;;;;;11.10;3.85;;;22.90;70.00;;;;;;4839298;29;20140;-80
2021/08/03 12:23:27;;;;;;;12.65;4.10;;;23.00;71.90;;;;;;4837719;29;20075;-82
2021/08/03 12:25:59;;;;;;;8.35;2.10;;;23.10;72.80;;;;;;4833606;29;20053;-79
2021/08/03 12:28:29;;;;;;;10.25;3.72;;;23.20;69.20;;;;;;4831782;29;20106;-81
2021/08/03 12:30:55;;;;;;;6.85;2.35;;;23.10;70.60;;;;;;4834676;29;20530;-79
2021/08/03 12:33:33;;;;;;;7.47;2.75;;;23.20;71.20;;;;;;4842918;29;20499;-79
2021/08/03 12:36:08;;;;;;;7.50;2.60;;;23.20;70.90;;;;;;4841836;29;20068;-79
2021/08/03 12:38:35;;;;;;;8.18;2.65;;;23.20;72.60;;;;;;4843133;29;20058;-78
2021/08/03 12:41:16;;;;;;;4.10;1.10;;;23.30;73.10;;;;;;4843740;29;20081;-78
2021/08/03 12:43:41;;;;;;;5.85;1.92;;;23.30;63.40;;;;;;4842309;29;20058;-78
2021/08/03 12:46:07;;;;;;;5.97;1.98;;;23.20;67.90;;;;;;4842869;29;20049;-79
2021/08/03 12:48:34;;;;;;;5.38;2.10;;;23.10;69.10;;;;;;4835203;29;20054;-79
2021/08/03 12:51:01;;;;;;;4.65;1.48;;;23.10;71.70;;;;;;4823733;29;20054;-80
2021/08/03 12:53:30;;;;;;;6.50;2.00;;;23.20;67.80;;;;;;4824742;29;20111;-79
2021/08/03 12:56:15;;;;;;;6.68;1.17;;;23.10;70.30;;;;;;4824204;29;20060;-79
2021/08/03 12:58:43;;;;;;;3.78;1.13;;;23.20;66.40;;;;;;4833186;29;20050;-79
2021/08/03 13:01:22;;;;;;;5.45;1.70;;;23.20;64.50;;;;;;4831652;29;20137;-79
2021/08/03 13:03:50;;;;;;;5.93;1.25;;;23.20;68.40;;;;;;4831888;29;20090;-79